RJOA/HIJ METAR and TAF weather

Enter ICAO airport designator
Station Type Date Time Source
RJOA METAR 2020/01/26 01:00 UTC NOAA

RJOA 260100Z 07007KT 9999 FEW001 SCT120 BKN140 06/02 Q1024


Station Type Date Time Source
RJOA Decoded METAR 2020/01/26 01:00 UTC NOAA

Hiroshima Airport, Japan (RJOA) 34-26N 132-55E 334M
Jan 25, 2020 - 08:00 PM EST / 2020.01.26 0100 UTC
Wind: from the ENE (070 degrees) at 8 MPH (7 KT):0
Visibility: greater than 7 mile(s):0
Sky conditions: mostly cloudy
Temperature: 42 F (6 C)
Dew Point: 35 F (2 C)
Relative Humidity: 75%
Pressure (altimeter): 30.24 in. Hg (1024 hPa)
ob: RJOA 260100Z 07007KT 9999 FEW001 SCT120 BKN140 06/02 Q1024
cycle: 1

Station Type Date Time Source
RJOA TAF 2020/01/25 18:28 UTC NOAA

TAF RJOA 251705Z 2518/2700 08008KT 9999 FEW020 SCT040
TEMPO 2518/2521 4000 -RA BR FEW004 SCT006 BKN008
BECMG 2621/2700 06018KT
TEMPO 2621/2700 3000 RA BR FEW001 SCT003 BKN008

Example: see airport list